sensor_id;sensor_type;location;lat;lon;timestamp;P1;durP1;ratioP1;P2;durP2;ratioP2
51214;SDS011;63849;47.546;19.254;2024-02-15T00:01:55;55.08;;;38.28;;
51214;SDS011;63849;47.546;19.254;2024-02-15T00:04:20;90.57;;;58.75;;
51214;SDS011;63849;47.546;19.254;2024-02-15T00:06:46;94.10;;;59.53;;
51214;SDS011;63849;47.546;19.254;2024-02-15T00:09:12;72.28;;;46.80;;
51214;SDS011;63849;47.546;19.254;2024-02-15T00:11:38;72.20;;;48.85;;
51214;SDS011;63849;47.546;19.254;2024-02-15T00:14:04;64.45;;;42.40;;
51214;SDS011;63849;47.546;19.254;2024-02-15T00:16:30;58.08;;;39.63;;
51214;SDS011;63849;47.546;19.254;2024-02-15T00:18:56;53.95;;;36.47;;
51214;SDS011;63849;47.546;19.254;2024-02-15T00:21:21;52.70;;;35.55;;
51214;SDS011;63849;47.546;19.254;2024-02-15T00:23:50;54.55;;;36.60;;
51214;SDS011;63849;47.546;19.254;2024-02-15T00:26:16;51.55;;;34.85;;
51214;SDS011;63849;47.546;19.254;2024-02-15T00:28:41;48.05;;;32.05;;
51214;SDS011;63849;47.546;19.254;2024-02-15T00:31:07;48.80;;;33.90;;
51214;SDS011;63849;47.546;19.254;2024-02-15T00:33:33;47.83;;;33.17;;
51214;SDS011;63849;47.546;19.254;2024-02-15T00:36:01;46.85;;;32.88;;
51214;SDS011;63849;47.546;19.254;2024-02-15T00:38:29;43.88;;;31.75;;
51214;SDS011;63849;47.546;19.254;2024-02-15T00:40:56;44.05;;;30.80;;
51214;SDS011;63849;47.546;19.254;2024-02-15T00:43:22;47.20;;;32.83;;
51214;SDS011;63849;47.546;19.254;2024-02-15T00:45:47;46.42;;;33.75;;
51214;SDS011;63849;47.546;19.254;2024-02-15T00:48:13;50.45;;;33.85;;
51214;SDS011;63849;47.546;19.254;2024-02-15T00:50:39;49.78;;;34.38;;
51214;SDS011;63849;47.546;19.254;2024-02-15T00:53:04;46.97;;;33.95;;
51214;SDS011;63849;47.546;19.254;2024-02-15T00:55:30;49.03;;;34.15;;
51214;SDS011;63849;47.546;19.254;2024-02-15T00:57:56;45.20;;;31.48;;
51214;SDS011;63849;47.546;19.254;2024-02-15T01:00:22;46.03;;;32.17;;
51214;SDS011;63849;47.546;19.254;2024-02-15T01:02:48;41.80;;;29.67;;
51214;SDS011;63849;47.546;19.254;2024-02-15T01:05:14;41.42;;;26.73;;
51214;SDS011;63849;47.546;19.254;2024-02-15T01:07:40;36.92;;;26.67;;
51214;SDS011;63849;47.546;19.254;2024-02-15T01:10:06;34.53;;;25.38;;
51214;SDS011;63849;47.546;19.254;2024-02-15T01:12:33;36.63;;;25.75;;
51214;SDS011;63849;47.546;19.254;2024-02-15T01:14:58;37.70;;;25.85;;
51214;SDS011;63849;47.546;19.254;2024-02-15T01:17:24;34.45;;;25.48;;
51214;SDS011;63849;47.546;19.254;2024-02-15T01:19:50;36.25;;;25.85;;
51214;SDS011;63849;47.546;19.254;2024-02-15T01:22:16;40.03;;;26.60;;
51214;SDS011;63849;47.546;19.254;2024-02-15T01:24:41;40.30;;;26.33;;
51214;SDS011;63849;47.546;19.254;2024-02-15T01:27:07;39.95;;;26.52;;
51214;SDS011;63849;47.546;19.254;2024-02-15T01:29:34;41.03;;;27.92;;
51214;SDS011;63849;47.546;19.254;2024-02-15T01:32:00;39.80;;;27.67;;
51214;SDS011;63849;47.546;19.254;2024-02-15T01:34:27;44.08;;;27.77;;
51214;SDS011;63849;47.546;19.254;2024-02-15T01:36:53;40.53;;;27.85;;
51214;SDS011;63849;47.546;19.254;2024-02-15T01:39:19;42.40;;;27.70;;
51214;SDS011;63849;47.546;19.254;2024-02-15T01:41:48;39.72;;;27.95;;
51214;SDS011;63849;47.546;19.254;2024-02-15T01:44:20;42.60;;;28.75;;
51214;SDS011;63849;47.546;19.254;2024-02-15T01:46:49;35.22;;;26.27;;
51214;SDS011;63849;47.546;19.254;2024-02-15T01:49:20;38.35;;;27.30;;
51214;SDS011;63849;47.546;19.254;2024-02-15T01:51:47;37.55;;;27.63;;
51214;SDS011;63849;47.546;19.254;2024-02-15T01:54:18;42.20;;;27.40;;
51214;SDS011;63849;47.546;19.254;2024-02-15T01:56:45;39.65;;;27.05;;
51214;SDS011;63849;47.546;19.254;2024-02-15T01:59:11;42.05;;;29.38;;
51214;SDS011;63849;47.546;19.254;2024-02-15T02:01:39;41.63;;;29.08;;
51214;SDS011;63849;47.546;19.254;2024-02-15T02:04:06;43.08;;;29.58;;
51214;SDS011;63849;47.546;19.254;2024-02-15T02:06:33;39.65;;;28.45;;
51214;SDS011;63849;47.546;19.254;2024-02-15T02:08:59;43.22;;;29.20;;
51214;SDS011;63849;47.546;19.254;2024-02-15T02:11:27;41.15;;;29.63;;
51214;SDS011;63849;47.546;19.254;2024-02-15T02:13:54;42.08;;;29.00;;
51214;SDS011;63849;47.546;19.254;2024-02-15T02:16:27;40.53;;;28.60;;
51214;SDS011;63849;47.546;19.254;2024-02-15T02:21:20;38.67;;;28.98;;
51214;SDS011;63849;47.546;19.254;2024-02-15T02:23:46;43.22;;;29.92;;
51214;SDS011;63849;47.546;19.254;2024-02-15T02:26:18;37.65;;;27.42;;
51214;SDS011;63849;47.546;19.254;2024-02-15T02:28:47;43.63;;;28.88;;
51214;SDS011;63849;47.546;19.254;2024-02-15T02:31:13;38.67;;;28.15;;
51214;SDS011;63849;47.546;19.254;2024-02-15T02:33:39;35.08;;;25.98;;
51214;SDS011;63849;47.546;19.254;2024-02-15T02:36:06;42.25;;;27.88;;
51214;SDS011;63849;47.546;19.254;2024-02-15T02:38:34;40.80;;;28.40;;
51214;SDS011;63849;47.546;19.254;2024-02-15T02:41:03;39.60;;;27.30;;
51214;SDS011;63849;47.546;19.254;2024-02-15T02:43:29;38.90;;;26.10;;
51214;SDS011;63849;47.546;19.254;2024-02-15T02:45:55;41.33;;;27.52;;
51214;SDS011;63849;47.546;19.254;2024-02-15T02:48:20;41.65;;;27.80;;
51214;SDS011;63849;47.546;19.254;2024-02-15T02:50:46;35.38;;;26.55;;
51214;SDS011;63849;47.546;19.254;2024-02-15T02:53:13;42.08;;;27.25;;
51214;SDS011;63849;47.546;19.254;2024-02-15T02:55:43;34.80;;;26.25;;
51214;SDS011;63849;47.546;19.254;2024-02-15T02:58:09;38.20;;;25.30;;
51214;SDS011;63849;47.546;19.254;2024-02-15T03:00:34;39.15;;;27.30;;
51214;SDS011;63849;47.546;19.254;2024-02-15T03:03:00;36.08;;;26.80;;
51214;SDS011;63849;47.546;19.254;2024-02-15T03:05:26;37.47;;;27.55;;
51214;SDS011;63849;47.546;19.254;2024-02-15T03:07:52;41.13;;;28.40;;
51214;SDS011;63849;47.546;19.254;2024-02-15T03:10:18;37.90;;;25.92;;
51214;SDS011;63849;47.546;19.254;2024-02-15T03:12:44;38.15;;;27.23;;
51214;SDS011;63849;47.546;19.254;2024-02-15T03:15:13;37.90;;;26.35;;
51214;SDS011;63849;47.546;19.254;2024-02-15T03:17:39;37.08;;;28.02;;
51214;SDS011;63849;47.546;19.254;2024-02-15T03:20:06;42.13;;;27.00;;
51214;SDS011;63849;47.546;19.254;2024-02-15T03:22:37;39.17;;;27.95;;
51214;SDS011;63849;47.546;19.254;2024-02-15T03:25:06;38.47;;;26.50;;
51214;SDS011;63849;47.546;19.254;2024-02-15T03:27:35;40.28;;;27.17;;
51214;SDS011;63849;47.546;19.254;2024-02-15T03:30:05;37.05;;;26.92;;
51214;SDS011;63849;47.546;19.254;2024-02-15T03:32:31;37.17;;;27.73;;
51214;SDS011;63849;47.546;19.254;2024-02-15T03:34:57;37.42;;;26.42;;
51214;SDS011;63849;47.546;19.254;2024-02-15T03:37:25;35.78;;;26.40;;
51214;SDS011;63849;47.546;19.254;2024-02-15T03:39:51;35.95;;;25.35;;
51214;SDS011;63849;47.546;19.254;2024-02-15T03:42:17;35.03;;;25.88;;
51214;SDS011;63849;47.546;19.254;2024-02-15T03:44:43;34.92;;;25.30;;
51214;SDS011;63849;47.546;19.254;2024-02-15T03:47:08;36.55;;;25.08;;
51214;SDS011;63849;47.546;19.254;2024-02-15T03:49:34;38.38;;;25.20;;
51214;SDS011;63849;47.546;19.254;2024-02-15T03:51:59;37.38;;;25.67;;
51214;SDS011;63849;47.546;19.254;2024-02-15T03:54:25;36.75;;;26.67;;
51214;SDS011;63849;47.546;19.254;2024-02-15T03:56:51;36.42;;;25.25;;
51214;SDS011;63849;47.546;19.254;2024-02-15T03:59:20;37.17;;;25.05;;
51214;SDS011;63849;47.546;19.254;2024-02-15T04:01:52;36.95;;;25.33;;
51214;SDS011;63849;47.546;19.254;2024-02-15T04:04:19;32.53;;;23.40;;
51214;SDS011;63849;47.546;19.254;2024-02-15T04:06:48;35.33;;;24.33;;
51214;SDS011;63849;47.546;19.254;2024-02-15T04:09:14;31.55;;;25.15;;
51214;SDS011;63849;47.546;19.254;2024-02-15T04:11:42;33.45;;;25.27;;
51214;SDS011;63849;47.546;19.254;2024-02-15T04:14:18;34.80;;;24.85;;
51214;SDS011;63849;47.546;19.254;2024-02-15T04:16:44;37.63;;;25.20;;
51214;SDS011;63849;47.546;19.254;2024-02-15T04:19:10;36.20;;;25.25;;
51214;SDS011;63849;47.546;19.254;2024-02-15T04:21:36;31.08;;;24.33;;
51214;SDS011;63849;47.546;19.254;2024-02-15T04:24:02;34.78;;;24.38;;
51214;SDS011;63849;47.546;19.254;2024-02-15T04:26:28;33.95;;;23.77;;
51214;SDS011;63849;47.546;19.254;2024-02-15T04:28:55;36.05;;;24.77;;
51214;SDS011;63849;47.546;19.254;2024-02-15T04:31:21;35.20;;;24.65;;
51214;SDS011;63849;47.546;19.254;2024-02-15T04:33:51;32.25;;;23.02;;
51214;SDS011;63849;47.546;19.254;2024-02-15T04:36:18;30.98;;;22.33;;
51214;SDS011;63849;47.546;19.254;2024-02-15T04:38:48;34.53;;;23.90;;
51214;SDS011;63849;47.546;19.254;2024-02-15T04:41:17;34.83;;;23.77;;
51214;SDS011;63849;47.546;19.254;2024-02-15T04:43:48;34.97;;;23.77;;
51214;SDS011;63849;47.546;19.254;2024-02-15T04:46:15;32.20;;;25.13;;
51214;SDS011;63849;47.546;19.254;2024-02-15T04:48:43;33.55;;;23.92;;
51214;SDS011;63849;47.546;19.254;2024-02-15T04:51:09;31.50;;;24.08;;
51214;SDS011;63849;47.546;19.254;2024-02-15T04:53:38;29.45;;;24.08;;
51214;SDS011;63849;47.546;19.254;2024-02-15T04:56:05;33.13;;;24.25;;
51214;SDS011;63849;47.546;19.254;2024-02-15T04:58:39;37.35;;;24.80;;
51214;SDS011;63849;47.546;19.254;2024-02-15T05:01:14;32.80;;;23.83;;
51214;SDS011;63849;47.546;19.254;2024-02-15T05:03:41;32.33;;;24.35;;
51214;SDS011;63849;47.546;19.254;2024-02-15T05:06:07;30.95;;;23.10;;
51214;SDS011;63849;47.546;19.254;2024-02-15T05:08:33;30.33;;;22.92;;
51214;SDS011;63849;47.546;19.254;2024-02-15T05:11:01;33.78;;;22.98;;
51214;SDS011;63849;47.546;19.254;2024-02-15T05:13:29;32.72;;;22.40;;
51214;SDS011;63849;47.546;19.254;2024-02-15T05:15:55;29.88;;;21.23;;
51214;SDS011;63849;47.546;19.254;2024-02-15T05:18:21;32.30;;;20.60;;
51214;SDS011;63849;47.546;19.254;2024-02-15T05:20:46;27.67;;;19.50;;
51214;SDS011;63849;47.546;19.254;2024-02-15T05:23:12;24.48;;;18.30;;
51214;SDS011;63849;47.546;19.254;2024-02-15T05:25:38;26.35;;;18.52;;
51214;SDS011;63849;47.546;19.254;2024-02-15T05:28:03;27.52;;;19.38;;
51214;SDS011;63849;47.546;19.254;2024-02-15T05:30:31;23.88;;;18.70;;
51214;SDS011;63849;47.546;19.254;2024-02-15T05:32:57;26.77;;;18.27;;
51214;SDS011;63849;47.546;19.254;2024-02-15T05:35:23;24.83;;;18.05;;
51214;SDS011;63849;47.546;19.254;2024-02-15T05:37:49;26.17;;;18.77;;
51214;SDS011;63849;47.546;19.254;2024-02-15T05:40:17;25.95;;;19.08;;
51214;SDS011;63849;47.546;19.254;2024-02-15T05:42:44;28.20;;;19.85;;
51214;SDS011;63849;47.546;19.254;2024-02-15T05:47:52;27.38;;;19.35;;
51214;SDS011;63849;47.546;19.254;2024-02-15T05:50:18;28.45;;;19.55;;
51214;SDS011;63849;47.546;19.254;2024-02-15T05:52:48;31.83;;;20.42;;
51214;SDS011;63849;47.546;19.254;2024-02-15T05:55:13;30.17;;;21.13;;
51214;SDS011;63849;47.546;19.254;2024-02-15T05:57:42;30.48;;;21.55;;
51214;SDS011;63849;47.546;19.254;2024-02-15T06:00:08;30.45;;;21.60;;
51214;SDS011;63849;47.546;19.254;2024-02-15T06:02:35;31.13;;;21.52;;
51214;SDS011;63849;47.546;19.254;2024-02-15T06:05:00;29.73;;;21.13;;
51214;SDS011;63849;47.546;19.254;2024-02-15T06:07:28;27.15;;;20.60;;
51214;SDS011;63849;47.546;19.254;2024-02-15T06:09:56;27.17;;;20.08;;
51214;SDS011;63849;47.546;19.254;2024-02-15T06:12:29;33.22;;;21.23;;
51214;SDS011;63849;47.546;19.254;2024-02-15T06:14:55;29.58;;;21.25;;
51214;SDS011;63849;47.546;19.254;2024-02-15T06:17:21;30.13;;;20.75;;
51214;SDS011;63849;47.546;19.254;2024-02-15T06:19:46;29.88;;;21.25;;
51214;SDS011;63849;47.546;19.254;2024-02-15T06:22:12;32.45;;;21.40;;
51214;SDS011;63849;47.546;19.254;2024-02-15T06:24:38;28.50;;;20.45;;
51214;SDS011;63849;47.546;19.254;2024-02-15T06:27:04;36.58;;;21.38;;
51214;SDS011;63849;47.546;19.254;2024-02-15T06:29:30;47.42;;;21.98;;
51214;SDS011;63849;47.546;19.254;2024-02-15T06:32:15;29.35;;;21.15;;
51214;SDS011;63849;47.546;19.254;2024-02-15T06:34:59;29.65;;;22.45;;
51214;SDS011;63849;47.546;19.254;2024-02-15T06:38:03;34.10;;;23.75;;
51214;SDS011;63849;47.546;19.254;2024-02-15T06:40:48;31.80;;;23.27;;
51214;SDS011;63849;47.546;19.254;2024-02-15T06:43:13;32.10;;;22.48;;
51214;SDS011;63849;47.546;19.254;2024-02-15T06:45:39;35.22;;;22.98;;
51214;SDS011;63849;47.546;19.254;2024-02-15T06:48:09;31.92;;;22.77;;
51214;SDS011;63849;47.546;19.254;2024-02-15T06:50:35;33.97;;;23.88;;
51214;SDS011;63849;47.546;19.254;2024-02-15T06:53:02;31.40;;;24.25;;
51214;SDS011;63849;47.546;19.254;2024-02-15T06:55:28;34.08;;;22.85;;
51214;SDS011;63849;47.546;19.254;2024-02-15T06:57:53;39.03;;;25.48;;
51214;SDS011;63849;47.546;19.254;2024-02-15T07:00:20;37.25;;;23.98;;
51214;SDS011;63849;47.546;19.254;2024-02-15T07:02:45;39.90;;;27.60;;
51214;SDS011;63849;47.546;19.254;2024-02-15T07:05:13;39.83;;;25.52;;
51214;SDS011;63849;47.546;19.254;2024-02-15T07:07:39;35.50;;;23.40;;
51214;SDS011;63849;47.546;19.254;2024-02-15T07:10:08;30.30;;;21.40;;
51214;SDS011;63849;47.546;19.254;2024-02-15T07:12:34;32.65;;;21.85;;
51214;SDS011;63849;47.546;19.254;2024-02-15T07:15:01;38.70;;;22.70;;
51214;SDS011;63849;47.546;19.254;2024-02-15T07:17:28;31.15;;;21.85;;
51214;SDS011;63849;47.546;19.254;2024-02-15T07:19:54;36.28;;;25.42;;
51214;SDS011;63849;47.546;19.254;2024-02-15T07:22:20;39.35;;;25.20;;
51214;SDS011;63849;47.546;19.254;2024-02-15T07:24:47;36.60;;;27.30;;
51214;SDS011;63849;47.546;19.254;2024-02-15T07:27:13;37.38;;;26.92;;
51214;SDS011;63849;47.546;19.254;2024-02-15T07:29:38;35.35;;;25.42;;
51214;SDS011;63849;47.546;19.254;2024-02-15T07:32:04;33.55;;;24.98;;
51214;SDS011;63849;47.546;19.254;2024-02-15T07:34:31;36.80;;;24.23;;
51214;SDS011;63849;47.546;19.254;2024-02-15T07:36:58;37.13;;;26.33;;
51214;SDS011;63849;47.546;19.254;2024-02-15T07:39:24;32.28;;;24.13;;
51214;SDS011;63849;47.546;19.254;2024-02-15T07:41:53;38.47;;;25.88;;
51214;SDS011;63849;47.546;19.254;2024-02-15T07:44:30;40.10;;;24.98;;
51214;SDS011;63849;47.546;19.254;2024-02-15T07:46:58;36.95;;;25.60;;
51214;SDS011;63849;47.546;19.254;2024-02-15T07:49:25;39.00;;;26.20;;
51214;SDS011;63849;47.546;19.254;2024-02-15T07:51:51;42.60;;;27.83;;
51214;SDS011;63849;47.546;19.254;2024-02-15T07:54:21;41.75;;;29.77;;
51214;SDS011;63849;47.546;19.254;2024-02-15T07:56:48;37.95;;;24.70;;
51214;SDS011;63849;47.546;19.254;2024-02-15T07:59:14;36.10;;;25.15;;
51214;SDS011;63849;47.546;19.254;2024-02-15T08:01:42;37.97;;;25.90;;
51214;SDS011;63849;47.546;19.254;2024-02-15T08:04:10;37.03;;;26.25;;
51214;SDS011;63849;47.546;19.254;2024-02-15T08:06:36;35.67;;;25.45;;
51214;SDS011;63849;47.546;19.254;2024-02-15T08:09:03;39.15;;;25.98;;
51214;SDS011;63849;47.546;19.254;2024-02-15T08:11:32;46.35;;;27.50;;
51214;SDS011;63849;47.546;19.254;2024-02-15T08:13:58;44.25;;;27.85;;
51214;SDS011;63849;47.546;19.254;2024-02-15T08:16:24;38.58;;;27.42;;
51214;SDS011;63849;47.546;19.254;2024-02-15T08:18:54;40.50;;;27.73;;
51214;SDS011;63849;47.546;19.254;2024-02-15T08:21:26;48.53;;;29.40;;
51214;SDS011;63849;47.546;19.254;2024-02-15T08:23:54;43.58;;;27.40;;
51214;SDS011;63849;47.546;19.254;2024-02-15T08:26:20;40.53;;;26.15;;
51214;SDS011;63849;47.546;19.254;2024-02-15T08:28:46;38.88;;;27.17;;
51214;SDS011;63849;47.546;19.254;2024-02-15T08:31:12;33.67;;;25.35;;
51214;SDS011;63849;47.546;19.254;2024-02-15T08:33:40;38.05;;;27.73;;
51214;SDS011;63849;47.546;19.254;2024-02-15T08:36:08;34.72;;;25.17;;
51214;SDS011;63849;47.546;19.254;2024-02-15T08:38:35;40.83;;;27.10;;
51214;SDS011;63849;47.546;19.254;2024-02-15T08:41:02;39.90;;;28.42;;
51214;SDS011;63849;47.546;19.254;2024-02-15T08:43:29;46.35;;;31.35;;
51214;SDS011;63849;47.546;19.254;2024-02-15T08:45:57;51.45;;;32.65;;
51214;SDS011;63849;47.546;19.254;2024-02-15T08:48:24;48.03;;;31.10;;
51214;SDS011;63849;47.546;19.254;2024-02-15T08:50:50;39.38;;;29.90;;
51214;SDS011;63849;47.546;19.254;2024-02-15T08:53:16;42.50;;;29.30;;
51214;SDS011;63849;47.546;19.254;2024-02-15T08:55:44;44.05;;;32.42;;
51214;SDS011;63849;47.546;19.254;2024-02-15T08:58:10;42.20;;;31.63;;
51214;SDS011;63849;47.546;19.254;2024-02-15T09:00:36;38.60;;;30.52;;
51214;SDS011;63849;47.546;19.254;2024-02-15T09:03:06;41.45;;;31.17;;
51214;SDS011;63849;47.546;19.254;2024-02-15T09:05:32;39.20;;;30.38;;
51214;SDS011;63849;47.546;19.254;2024-02-15T09:07:57;40.40;;;30.70;;
51214;SDS011;63849;47.546;19.254;2024-02-15T09:10:23;43.05;;;30.80;;
51214;SDS011;63849;47.546;19.254;2024-02-15T09:12:49;39.78;;;30.08;;
51214;SDS011;63849;47.546;19.254;2024-02-15T09:15:15;43.80;;;32.25;;
51214;SDS011;63849;47.546;19.254;2024-02-15T09:17:41;41.92;;;30.75;;
51214;SDS011;63849;47.546;19.254;2024-02-15T09:20:09;41.90;;;31.45;;
51214;SDS011;63849;47.546;19.254;2024-02-15T09:22:49;37.67;;;30.00;;
51214;SDS011;63849;47.546;19.254;2024-02-15T09:25:16;41.60;;;31.17;;
51214;SDS011;63849;47.546;19.254;2024-02-15T09:27:42;42.97;;;30.98;;
51214;SDS011;63849;47.546;19.254;2024-02-15T09:30:09;40.67;;;30.40;;
51214;SDS011;63849;47.546;19.254;2024-02-15T09:32:35;42.13;;;30.20;;
51214;SDS011;63849;47.546;19.254;2024-02-15T09:35:01;40.88;;;31.25;;
51214;SDS011;63849;47.546;19.254;2024-02-15T09:37:27;38.70;;;29.05;;
51214;SDS011;63849;47.546;19.254;2024-02-15T09:39:53;38.42;;;28.58;;
51214;SDS011;63849;47.546;19.254;2024-02-15T09:42:20;35.42;;;26.02;;
51214;SDS011;63849;47.546;19.254;2024-02-15T09:44:47;34.03;;;25.20;;
51214;SDS011;63849;47.546;19.254;2024-02-15T09:47:13;34.85;;;26.40;;
51214;SDS011;63849;47.546;19.254;2024-02-15T09:49:41;34.67;;;25.88;;
51214;SDS011;63849;47.546;19.254;2024-02-15T09:52:07;33.33;;;24.33;;
51214;SDS011;63849;47.546;19.254;2024-02-15T09:54:41;30.33;;;23.77;;
51214;SDS011;63849;47.546;19.254;2024-02-15T09:57:10;30.80;;;23.52;;
51214;SDS011;63849;47.546;19.254;2024-02-15T09:59:40;29.98;;;23.33;;
51214;SDS011;63849;47.546;19.254;2024-02-15T10:02:06;32.55;;;26.40;;
51214;SDS011;63849;47.546;19.254;2024-02-15T10:04:44;32.47;;;26.45;;
51214;SDS011;63849;47.546;19.254;2024-02-15T10:07:10;35.22;;;25.90;;
51214;SDS011;63849;47.546;19.254;2024-02-15T10:09:38;36.22;;;26.13;;
51214;SDS011;63849;47.546;19.254;2024-02-15T10:12:07;35.33;;;27.10;;
51214;SDS011;63849;47.546;19.254;2024-02-15T10:14:34;34.90;;;25.63;;
51214;SDS011;63849;47.546;19.254;2024-02-15T10:17:06;34.08;;;26.17;;
51214;SDS011;63849;47.546;19.254;2024-02-15T10:19:36;34.75;;;26.90;;
51214;SDS011;63849;47.546;19.254;2024-02-15T10:22:07;28.48;;;23.55;;
51214;SDS011;63849;47.546;19.254;2024-02-15T10:24:34;32.58;;;24.27;;
51214;SDS011;63849;47.546;19.254;2024-02-15T10:27:02;31.80;;;24.20;;
51214;SDS011;63849;47.546;19.254;2024-02-15T10:29:29;33.83;;;24.58;;
51214;SDS011;63849;47.546;19.254;2024-02-15T10:31:56;30.65;;;24.92;;
51214;SDS011;63849;47.546;19.254;2024-02-15T10:34:24;34.15;;;25.30;;
51214;SDS011;63849;47.546;19.254;2024-02-15T10:37:09;32.17;;;24.58;;
51214;SDS011;63849;47.546;19.254;2024-02-15T10:39:36;30.83;;;23.73;;
51214;SDS011;63849;47.546;19.254;2024-02-15T10:42:02;34.17;;;25.08;;
51214;SDS011;63849;47.546;19.254;2024-02-15T10:44:31;28.02;;;22.42;;
51214;SDS011;63849;47.546;19.254;2024-02-15T10:46:59;30.00;;;22.17;;
51214;SDS011;63849;47.546;19.254;2024-02-15T10:49:25;31.38;;;22.88;;
51214;SDS011;63849;47.546;19.254;2024-02-15T10:51:56;30.90;;;23.23;;
51214;SDS011;63849;47.546;19.254;2024-02-15T10:57:12;28.38;;;21.65;;
51214;SDS011;63849;47.546;19.254;2024-02-15T10:59:54;29.35;;;21.60;;
51214;SDS011;63849;47.546;19.254;2024-02-15T11:03:07;29.73;;;21.23;;
51214;SDS011;63849;47.546;19.254;2024-02-15T11:05:31;27.85;;;22.17;;
51214;SDS011;63849;47.546;19.254;2024-02-15T11:07:59;26.73;;;21.50;;
51214;SDS011;63849;47.546;19.254;2024-02-15T11:10:27;26.40;;;20.63;;
51214;SDS011;63849;47.546;19.254;2024-02-15T11:12:53;27.73;;;23.15;;
51214;SDS011;63849;47.546;19.254;2024-02-15T11:18:10;31.15;;;21.77;;
51214;SDS011;63849;47.546;19.254;2024-02-15T11:23:03;25.10;;;20.63;;
51214;SDS011;63849;47.546;19.254;2024-02-15T11:25:33;25.38;;;20.98;;
51214;SDS011;63849;47.546;19.254;2024-02-15T11:30:54;27.02;;;20.25;;
51214;SDS011;63849;47.546;19.254;2024-02-15T11:33:30;26.80;;;21.52;;
51214;SDS011;63849;47.546;19.254;2024-02-15T11:36:07;29.75;;;21.92;;
51214;SDS011;63849;47.546;19.254;2024-02-15T11:38:35;26.80;;;21.67;;
51214;SDS011;63849;47.546;19.254;2024-02-15T11:41:02;28.15;;;21.25;;
51214;SDS011;63849;47.546;19.254;2024-02-15T11:43:47;27.92;;;21.52;;
51214;SDS011;63849;47.546;19.254;2024-02-15T11:46:21;27.10;;;20.85;;
51214;SDS011;63849;47.546;19.254;2024-02-15T11:48:50;24.27;;;19.83;;
51214;SDS011;63849;47.546;19.254;2024-02-15T11:51:30;23.92;;;18.67;;
51214;SDS011;63849;47.546;19.254;2024-02-15T11:54:02;27.38;;;19.77;;
51214;SDS011;63849;47.546;19.254;2024-02-15T11:56:31;25.88;;;21.15;;
51214;SDS011;63849;47.546;19.254;2024-02-15T11:59:29;26.80;;;19.65;;
51214;SDS011;63849;47.546;19.254;2024-02-15T12:01:57;28.38;;;22.33;;
51214;SDS011;63849;47.546;19.254;2024-02-15T12:04:45;28.65;;;21.80;;
51214;SDS011;63849;47.546;19.254;2024-02-15T12:07:30;27.83;;;21.30;;
51214;SDS011;63849;47.546;19.254;2024-02-15T12:10:15;27.25;;;20.88;;
51214;SDS011;63849;47.546;19.254;2024-02-15T12:13:03;27.30;;;20.55;;
51214;SDS011;63849;47.546;19.254;2024-02-15T12:15:57;28.10;;;19.85;;
51214;SDS011;63849;47.546;19.254;2024-02-15T12:18:45;25.60;;;19.10;;
51214;SDS011;63849;47.546;19.254;2024-02-15T12:21:18;21.40;;;17.00;;
51214;SDS011;63849;47.546;19.254;2024-02-15T12:23:52;23.50;;;17.75;;
51214;SDS011;63849;47.546;19.254;2024-02-15T12:26:19;22.08;;;16.63;;
51214;SDS011;63849;47.546;19.254;2024-02-15T12:28:49;21.95;;;16.70;;
51214;SDS011;63849;47.546;19.254;2024-02-15T12:31:23;17.40;;;14.13;;
51214;SDS011;63849;47.546;19.254;2024-02-15T12:34:03;17.48;;;13.65;;
51214;SDS011;63849;47.546;19.254;2024-02-15T12:36:32;17.65;;;13.23;;
51214;SDS011;63849;47.546;19.254;2024-02-15T12:39:02;19.77;;;14.85;;
51214;SDS011;63849;47.546;19.254;2024-02-15T12:41:35;18.90;;;14.20;;
51214;SDS011;63849;47.546;19.254;2024-02-15T12:44:06;16.33;;;13.43;;
51214;SDS011;63849;47.546;19.254;2024-02-15T12:46:33;20.48;;;15.40;;
51214;SDS011;63849;47.546;19.254;2024-02-15T12:51:50;22.50;;;17.40;;
51214;SDS011;63849;47.546;19.254;2024-02-15T12:54:23;21.25;;;16.48;;
51214;SDS011;63849;47.546;19.254;2024-02-15T12:56:49;23.73;;;17.08;;
51214;SDS011;63849;47.546;19.254;2024-02-15T12:59:17;25.05;;;16.45;;
51214;SDS011;63849;47.546;19.254;2024-02-15T13:01:44;25.63;;;18.65;;
51214;SDS011;63849;47.546;19.254;2024-02-15T13:04:21;22.63;;;19.13;;
51214;SDS011;63849;47.546;19.254;2024-02-15T13:06:50;28.08;;;19.35;;
51214;SDS011;63849;47.546;19.254;2024-02-15T13:09:16;25.63;;;18.85;;
51214;SDS011;63849;47.546;19.254;2024-02-15T13:11:41;27.63;;;18.52;;
51214;SDS011;63849;47.546;19.254;2024-02-15T13:14:10;25.35;;;17.98;;
51214;SDS011;63849;47.546;19.254;2024-02-15T13:16:36;24.10;;;18.65;;
51214;SDS011;63849;47.546;19.254;2024-02-15T13:19:02;23.35;;;18.23;;
51214;SDS011;63849;47.546;19.254;2024-02-15T13:21:28;26.15;;;18.90;;
51214;SDS011;63849;47.546;19.254;2024-02-15T13:23:55;22.23;;;17.60;;
51214;SDS011;63849;47.546;19.254;2024-02-15T13:26:21;23.67;;;18.80;;
51214;SDS011;63849;47.546;19.254;2024-02-15T13:28:50;22.67;;;18.23;;
51214;SDS011;63849;47.546;19.254;2024-02-15T13:31:19;22.95;;;18.88;;
51214;SDS011;63849;47.546;19.254;2024-02-15T13:33:46;26.60;;;18.42;;
51214;SDS011;63849;47.546;19.254;2024-02-15T13:36:12;27.55;;;20.08;;
51214;SDS011;63849;47.546;19.254;2024-02-15T13:38:40;24.42;;;18.80;;
51214;SDS011;63849;47.546;19.254;2024-02-15T13:41:07;22.17;;;18.27;;
51214;SDS011;63849;47.546;19.254;2024-02-15T13:43:33;24.25;;;18.27;;
51214;SDS011;63849;47.546;19.254;2024-02-15T13:45:59;23.85;;;18.90;;
51214;SDS011;63849;47.546;19.254;2024-02-15T13:48:27;27.65;;;20.08;;
51214;SDS011;63849;47.546;19.254;2024-02-15T13:50:55;26.00;;;18.75;;
51214;SDS011;63849;47.546;19.254;2024-02-15T13:53:21;26.30;;;19.05;;
51214;SDS011;63849;47.546;19.254;2024-02-15T13:55:47;23.83;;;18.95;;
51214;SDS011;63849;47.546;19.254;2024-02-15T13:58:13;26.42;;;18.30;;
51214;SDS011;63849;47.546;19.254;2024-02-15T14:00:39;23.95;;;19.10;;
51214;SDS011;63849;47.546;19.254;2024-02-15T14:03:07;20.70;;;17.10;;
51214;SDS011;63849;47.546;19.254;2024-02-15T14:05:35;25.38;;;19.10;;
51214;SDS011;63849;47.546;19.254;2024-02-15T14:08:02;28.75;;;19.63;;
51214;SDS011;63849;47.546;19.254;2024-02-15T14:10:31;26.27;;;19.95;;
51214;SDS011;63849;47.546;19.254;2024-02-15T14:12:58;24.33;;;20.15;;
51214;SDS011;63849;47.546;19.254;2024-02-15T14:15:24;27.60;;;20.98;;
51214;SDS011;63849;47.546;19.254;2024-02-15T14:17:50;28.33;;;21.33;;
51214;SDS011;63849;47.546;19.254;2024-02-15T14:20:17;25.50;;;20.58;;
51214;SDS011;63849;47.546;19.254;2024-02-15T14:22:47;23.77;;;19.38;;
51214;SDS011;63849;47.546;19.254;2024-02-15T14:25:14;28.02;;;19.02;;
51214;SDS011;63849;47.546;19.254;2024-02-15T14:27:40;25.27;;;19.40;;
51214;SDS011;63849;47.546;19.254;2024-02-15T14:30:07;26.52;;;19.17;;
51214;SDS011;63849;47.546;19.254;2024-02-15T14:32:52;21.15;;;17.80;;
51214;SDS011;63849;47.546;19.254;2024-02-15T14:35:33;26.98;;;19.30;;